createdAt,value
2023-05-22T00:02:21.807Z,89.70
2023-05-22T00:05:10.299Z,89.40
2023-05-22T00:07:50.697Z,89.40
2023-05-22T00:10:38.510Z,89.60
2023-05-22T00:13:18.762Z,89.30
2023-05-22T00:16:06.201Z,89.00
2023-05-22T00:18:48.774Z,88.90
2023-05-22T00:21:37.700Z,89.00
2023-05-22T00:24:17.731Z,88.90
2023-05-22T00:27:04.814Z,88.80
2023-05-22T00:29:44.756Z,89.00
2023-05-22T00:32:32.882Z,88.90
2023-05-22T00:35:13.705Z,89.00
2023-05-22T00:38:08.215Z,89.10
2023-05-22T00:40:54.789Z,89.30
2023-05-22T00:43:41.880Z,89.30
2023-05-22T00:46:28.952Z,89.50
2023-05-22T00:49:15.730Z,89.50
2023-05-22T00:51:55.974Z,89.70
2023-05-22T00:54:42.742Z,89.70
2023-05-22T00:57:24.692Z,89.80
2023-05-22T01:00:15.763Z,90.00
2023-05-22T01:02:55.977Z,90.10
2023-05-22T01:05:42.786Z,90.10
2023-05-22T01:08:22.913Z,90.20
2023-05-22T01:11:35.898Z,90.20
2023-05-22T01:14:15.946Z,90.30
2023-05-22T01:17:08.851Z,90.60
2023-05-22T01:20:14.528Z,90.20
2023-05-22T01:23:27.890Z,90.30
2023-05-22T01:26:11.559Z,90.00
2023-05-22T01:29:16.811Z,90.00
2023-05-22T01:31:56.892Z,90.10
2023-05-22T01:34:44.790Z,90.00
2023-05-22T01:37:38.880Z,90.00
2023-05-22T01:40:25.881Z,90.00
2023-05-22T01:43:05.837Z,90.00
2023-05-22T01:45:52.985Z,89.60
2023-05-22T01:48:33.828Z,89.30
2023-05-22T01:51:25.010Z,89.00
2023-05-22T01:54:19.024Z,88.90
2023-05-22T01:57:07.569Z,89.70
2023-05-22T02:00:00.978Z,88.20
2023-05-22T02:02:57.054Z,88.20
2023-05-22T02:09:31.664Z,87.80
2023-05-22T02:12:49.633Z,87.80
2023-05-22T02:16:24.711Z,87.40
2023-05-22T02:19:42.069Z,87.60
2023-05-22T02:22:28.887Z,87.50
2023-05-22T02:25:20.945Z,86.00
2023-05-22T02:28:07.985Z,86.40
2023-05-22T02:30:47.933Z,85.80
2023-05-22T02:33:49.881Z,86.00
2023-05-22T02:36:37.930Z,85.90
2023-05-22T02:39:19.481Z,85.50
2023-05-22T02:42:05.941Z,85.90
2023-05-22T02:44:45.999Z,85.80
2023-05-22T02:47:33.192Z,85.70
2023-05-22T02:50:14.802Z,85.50
2023-05-22T02:53:02.008Z,85.30
2023-05-22T02:55:42.063Z,85.10
2023-05-22T02:58:29.904Z,85.10
2023-05-22T03:01:10.632Z,84.90
2023-05-22T03:03:58.075Z,84.50
2023-05-22T03:06:38.400Z,84.70
2023-05-22T03:09:26.953Z,84.60
2023-05-22T03:12:08.040Z,84.50
2023-05-22T03:14:54.883Z,84.80
2023-05-22T03:17:37.151Z,84.50
2023-05-22T03:20:24.020Z,83.90
2023-05-22T03:23:04.091Z,84.20
2023-05-22T03:25:50.935Z,84.50
2023-05-22T03:28:43.077Z,84.30
2023-05-22T03:31:34.138Z,84.20
2023-05-22T03:34:18.376Z,83.70
2023-05-22T03:37:12.004Z,83.30
2023-05-22T03:39:58.980Z,83.80
2023-05-22T03:42:39.025Z,83.70
2023-05-22T03:45:27.998Z,83.20
2023-05-22T03:48:11.197Z,83.00
2023-05-22T03:50:57.954Z,83.20
2023-05-22T03:53:39.056Z,83.30
2023-05-22T03:56:25.914Z,82.70
2023-05-22T03:59:06.121Z,82.50
2023-05-22T04:01:53.055Z,82.60
2023-05-22T04:04:34.661Z,82.30
2023-05-22T04:07:22.061Z,82.30
2023-05-22T04:10:02.059Z,82.20
2023-05-22T04:12:48.984Z,82.20
2023-05-22T04:15:29.102Z,81.60
2023-05-22T04:18:16.174Z,80.50
2023-05-22T04:20:56.206Z,80.50
2023-05-22T04:23:43.023Z,80.20
2023-05-22T04:26:23.120Z,80.30
2023-05-22T04:29:10.043Z,80.60
2023-05-22T04:31:50.101Z,80.40
2023-05-22T04:34:37.089Z,80.10
2023-05-22T04:37:35.122Z,79.70
2023-05-22T04:40:22.236Z,79.00
2023-05-22T04:43:02.076Z,79.20
2023-05-22T04:45:49.105Z,78.90
2023-05-22T04:48:30.038Z,78.70
2023-05-22T04:51:17.180Z,78.20
2023-05-22T04:53:59.088Z,77.40
2023-05-22T04:56:46.136Z,77.70
2023-05-22T04:59:30.032Z,78.00
2023-05-22T05:02:17.294Z,77.20
2023-05-22T05:04:57.159Z,77.50
2023-05-22T05:07:45.579Z,75.20
2023-05-22T05:13:15.245Z,74.10
2023-05-22T05:15:56.048Z,75.10
2023-05-22T05:18:43.930Z,74.90
2023-05-22T05:21:25.042Z,75.00
2023-05-22T05:24:14.220Z,73.50
2023-05-22T05:26:56.069Z,73.50
2023-05-22T05:29:44.251Z,73.40
2023-05-22T05:32:37.164Z,71.40
2023-05-22T05:35:35.102Z,71.60
2023-05-22T05:38:24.207Z,68.50
2023-05-22T05:41:04.052Z,69.40
2023-05-22T05:43:52.511Z,68.90
2023-05-22T05:46:34.218Z,68.40
2023-05-22T05:49:22.617Z,69.30
2023-05-22T05:52:02.111Z,68.40
2023-05-22T05:54:50.223Z,67.60
2023-05-22T05:57:30.175Z,68.10
2023-05-22T06:00:12.652Z,68.00
2023-05-22T06:03:02.357Z,68.10
2023-05-22T06:06:08.531Z,68.40
2023-05-22T06:09:19.125Z,69.60
2023-05-22T06:12:26.198Z,70.20
2023-05-22T06:15:06.298Z,70.00
2023-05-22T06:17:53.233Z,70.00
2023-05-22T06:20:33.383Z,69.50
2023-05-22T06:23:21.111Z,69.80
2023-05-22T06:26:02.430Z,68.90
2023-05-22T06:28:52.150Z,69.50
2023-05-22T06:31:35.499Z,68.40
2023-05-22T06:34:51.158Z,67.10
2023-05-22T06:37:57.536Z,65.70
2023-05-22T06:40:44.148Z,65.60
2023-05-22T06:43:35.342Z,64.90
2023-05-22T06:46:19.290Z,61.30
2023-05-22T06:49:17.194Z,60.90
2023-05-22T06:52:07.512Z,61.50
2023-05-22T06:54:49.178Z,62.00
2023-05-22T06:57:36.460Z,60.50
2023-05-22T07:00:21.573Z,60.00
2023-05-22T07:03:14.549Z,60.70
2023-05-22T07:06:39.386Z,62.20
2023-05-22T07:09:20.542Z,62.50
2023-05-22T07:12:07.191Z,62.70
2023-05-22T07:14:54.715Z,62.40
2023-05-22T07:17:36.191Z,59.70
2023-05-22T07:20:26.419Z,60.20
2023-05-22T07:23:16.267Z,60.10
2023-05-22T07:26:11.296Z,60.00
2023-05-22T07:28:58.445Z,59.90
2023-05-22T07:31:45.244Z,58.80
2023-05-22T07:34:34.489Z,56.90
2023-05-22T07:37:22.250Z,55.10
2023-05-22T07:40:02.351Z,54.00
2023-05-22T07:42:49.269Z,54.40
2023-05-22T07:45:29.629Z,53.70
2023-05-22T07:48:19.260Z,52.50
2023-05-22T08:01:38.190Z,46.10
2023-05-22T08:04:25.358Z,46.60
2023-05-22T08:07:12.967Z,46.50
2023-05-22T08:09:53.340Z,46.40
2023-05-22T08:12:40.379Z,47.70
2023-05-22T08:15:20.259Z,49.80
2023-05-22T08:18:10.490Z,47.40
2023-05-22T08:20:50.381Z,49.90
2023-05-22T08:23:38.650Z,49.20
2023-05-22T08:26:18.296Z,48.40
2023-05-22T08:29:05.498Z,48.50
2023-05-22T08:31:45.351Z,50.80
2023-05-22T08:34:39.337Z,49.10
2023-05-22T08:37:26.510Z,49.90
2023-05-22T08:40:06.321Z,48.80
2023-05-22T08:42:55.156Z,50.40
2023-05-22T08:45:36.356Z,49.60
2023-05-22T08:48:24.868Z,46.20
2023-05-22T08:51:05.773Z,47.20
2023-05-22T08:53:52.752Z,45.80
2023-05-22T08:56:35.359Z,47.10
2023-05-22T08:59:24.426Z,46.60
2023-05-22T09:02:05.136Z,45.50
2023-05-22T09:07:21.358Z,43.30
2023-05-22T09:10:05.284Z,44.60
2023-05-22T09:13:11.495Z,44.60
2023-05-22T09:15:51.440Z,44.20
2023-05-22T09:18:39.465Z,44.50
2023-05-22T09:21:30.027Z,42.50
2023-05-22T09:24:17.454Z,41.60
2023-05-22T09:26:57.570Z,41.70
2023-05-22T09:29:57.400Z,42.70
2023-05-22T09:32:45.412Z,40.90
2023-05-22T09:35:34.388Z,41.60
2023-05-22T09:38:28.400Z,44.10
2023-05-22T09:41:15.512Z,44.30
2023-05-22T09:43:59.821Z,40.30
2023-05-22T09:46:42.598Z,40.80
2023-05-22T09:49:29.428Z,39.80
2023-05-22T09:52:16.648Z,39.70
2023-05-22T09:55:01.398Z,38.10
2023-05-22T09:57:52.382Z,39.00
2023-05-22T10:00:33.423Z,39.70
2023-05-22T10:03:20.509Z,36.40
2023-05-22T10:06:01.443Z,38.70
2023-05-22T10:08:50.542Z,36.90
2023-05-22T10:11:31.545Z,39.90
2023-05-22T10:14:12.711Z,37.20
2023-05-22T10:16:59.459Z,36.90
2023-05-22T10:19:47.724Z,39.10
2023-05-22T10:22:29.435Z,39.90
2023-05-22T10:25:18.470Z,39.10
2023-05-22T10:27:59.452Z,37.30
2023-05-22T10:30:46.612Z,38.00
2023-05-22T10:33:32.393Z,37.50
2023-05-22T10:36:35.455Z,37.20
2023-05-22T10:39:42.578Z,38.80
2023-05-22T10:42:29.489Z,38.90
2023-05-22T10:45:17.668Z,39.20
2023-05-22T10:48:07.538Z,36.90
2023-05-22T10:50:59.780Z,40.90
2023-05-22T10:53:40.474Z,39.60
2023-05-22T10:56:27.610Z,36.70
2023-05-22T10:59:11.582Z,35.60
2023-05-22T11:02:00.620Z,37.80
2023-05-22T11:04:47.477Z,38.40
2023-05-22T11:07:38.319Z,38.60
2023-05-22T11:10:25.502Z,37.90
2023-05-22T11:13:12.347Z,39.00
2023-05-22T11:15:59.616Z,37.70
2023-05-22T11:18:47.330Z,38.40
2023-05-22T11:21:28.516Z,38.60
2023-05-22T11:24:16.571Z,35.50
2023-05-22T11:27:15.717Z,36.80
2023-05-22T11:30:02.551Z,38.70
2023-05-22T11:32:48.161Z,38.80
2023-05-22T11:35:35.605Z,36.60
2023-05-22T11:38:30.629Z,39.80
2023-05-22T11:41:18.564Z,37.40
2023-05-22T11:43:58.676Z,38.30
2023-05-22T11:46:45.739Z,38.20
2023-05-22T11:49:25.770Z,38.50
2023-05-22T11:52:13.548Z,38.00
2023-05-22T11:54:53.744Z,38.20
2023-05-22T11:57:41.576Z,38.20
2023-05-22T12:00:21.757Z,40.60
2023-05-22T12:03:08.668Z,39.00
2023-05-22T12:05:51.730Z,38.60
2023-05-22T12:08:38.629Z,37.70
2023-05-22T12:11:18.713Z,38.30
2023-05-22T12:14:08.609Z,38.20
2023-05-22T12:16:48.751Z,40.00
2023-05-22T12:19:35.817Z,37.70
2023-05-22T12:22:16.763Z,39.30
2023-05-22T12:27:45.575Z,39.10
2023-05-22T12:30:25.712Z,41.50
2023-05-22T12:33:06.045Z,41.90
2023-05-22T12:35:52.742Z,42.60
2023-05-22T12:38:39.849Z,43.50
2023-05-22T12:41:19.627Z,42.50
2023-05-22T12:44:06.789Z,44.10
2023-05-22T12:46:47.776Z,43.20
2023-05-22T12:52:08.642Z,42.90
2023-05-22T12:54:48.739Z,44.30
2023-05-22T12:57:35.634Z,44.10
2023-05-22T13:00:22.637Z,44.10
2023-05-22T13:03:09.819Z,44.90
2023-05-22T13:05:49.646Z,44.40
2023-05-22T13:08:36.801Z,44.50
2023-05-22T13:11:19.661Z,45.60
2023-05-22T13:14:06.779Z,46.40
2023-05-22T13:16:47.748Z,46.40
2023-05-22T13:19:34.986Z,45.40
2023-05-22T13:22:16.645Z,45.20
2023-05-22T13:25:03.877Z,46.10
2023-05-22T13:27:43.672Z,46.50
2023-05-22T13:30:23.929Z,46.20
2023-05-22T13:33:10.745Z,46.40
2023-05-22T13:35:57.870Z,47.10
2023-05-22T13:38:51.671Z,48.50
2023-05-22T13:41:38.862Z,48.80
2023-05-22T13:44:18.704Z,49.50
2023-05-22T13:47:06.047Z,48.90
2023-05-22T13:49:45.703Z,49.60
2023-05-22T13:52:32.789Z,50.30
2023-05-22T13:55:13.719Z,50.50
2023-05-22T13:58:00.817Z,50.40
2023-05-22T14:00:40.716Z,50.30
2023-05-22T14:03:34.780Z,50.30
2023-05-22T14:06:21.896Z,50.70
2023-05-22T14:09:01.692Z,50.60
2023-05-22T14:11:48.884Z,49.60
2023-05-22T14:14:30.791Z,49.30
2023-05-22T14:17:11.077Z,50.30
2023-05-22T14:19:57.764Z,51.30
2023-05-22T14:22:56.527Z,51.40
2023-05-22T14:25:37.972Z,50.90
2023-05-22T14:28:24.854Z,49.90
2023-05-22T14:31:04.817Z,49.80
2023-05-22T14:33:51.834Z,50.20
2023-05-22T14:36:31.863Z,50.20
2023-05-22T14:39:18.891Z,50.60
2023-05-22T14:42:01.749Z,50.90
2023-05-22T14:44:48.860Z,51.20
2023-05-22T14:47:28.753Z,51.00
2023-05-22T14:50:23.805Z,51.10
2023-05-22T14:53:10.789Z,51.50
2023-05-22T14:55:57.912Z,52.00
2023-05-22T14:58:38.249Z,52.30
2023-05-22T15:01:24.851Z,52.60
2023-05-22T15:04:11.896Z,53.00
2023-05-22T15:06:51.828Z,52.90
2023-05-22T15:09:32.633Z,52.60
2023-05-22T15:12:21.331Z,53.50
2023-05-22T15:15:10.022Z,52.40
2023-05-22T15:17:49.890Z,52.40
2023-05-22T15:20:36.954Z,52.30
2023-05-22T15:23:16.812Z,51.90
2023-05-22T15:26:04.153Z,51.40
2023-05-22T15:28:43.875Z,51.30
2023-05-22T15:31:31.075Z,52.20
2023-05-22T15:34:11.949Z,51.80
2023-05-22T15:37:05.968Z,51.80
2023-05-22T15:39:59.882Z,51.60
2023-05-22T15:42:54.853Z,52.20
2023-05-22T15:45:45.674Z,52.90
2023-05-22T15:48:26.232Z,52.90
2023-05-22T15:51:13.027Z,53.00
2023-05-22T15:53:52.962Z,53.00
2023-05-22T15:56:40.125Z,52.90
2023-05-22T15:59:19.916Z,52.70
2023-05-22T16:02:06.941Z,52.50
2023-05-22T16:04:46.868Z,52.90
2023-05-22T16:07:33.965Z,53.10
2023-05-22T16:10:13.876Z,52.80
2023-05-22T16:13:01.281Z,52.60
2023-05-22T16:15:41.111Z,52.20
2023-05-22T16:18:27.964Z,52.30
2023-05-22T16:21:07.885Z,52.20
2023-05-22T16:23:55.005Z,52.20
2023-05-22T16:26:36.968Z,52.20
2023-05-22T16:29:25.030Z,51.90
2023-05-22T16:32:05.010Z,51.10
2023-05-22T16:34:51.996Z,51.00
2023-05-22T16:37:32.005Z,51.00
2023-05-22T16:40:19.021Z,51.10
2023-05-22T16:42:58.908Z,50.90
2023-05-22T16:45:39.325Z,51.50
2023-05-22T16:48:26.016Z,51.90
2023-05-22T16:51:06.247Z,52.60
2023-05-22T16:53:53.986Z,53.20
2023-05-22T16:56:41.064Z,53.60
2023-05-22T16:59:23.264Z,53.50
2023-05-22T17:02:16.947Z,53.50
2023-05-22T17:05:04.079Z,53.80
2023-05-22T17:07:44.029Z,54.70
2023-05-22T17:10:31.112Z,55.20
2023-05-22T17:13:11.967Z,55.40
2023-05-22T17:15:52.169Z,55.30
2023-05-22T17:18:39.035Z,55.60
2023-05-22T17:21:26.043Z,56.10
2023-05-22T17:24:05.968Z,57.00
2023-05-22T17:26:53.059Z,56.90
2023-05-22T17:29:33.058Z,57.60
2023-05-22T17:32:20.126Z,58.60
2023-05-22T17:35:00.007Z,59.40
2023-05-22T17:37:33.886Z,60.30
2023-05-22T17:40:14.003Z,60.70
2023-05-22T17:42:54.151Z,60.90
2023-05-22T17:45:41.101Z,61.80
2023-05-22T17:48:27.104Z,62.50
2023-05-22T17:51:14.093Z,62.90
2023-05-22T17:53:56.503Z,63.20
2023-05-22T17:56:42.974Z,63.50
2023-05-22T17:59:23.146Z,63.70
2023-05-22T18:02:09.974Z,64.50
2023-05-22T18:04:57.087Z,65.20
2023-05-22T18:07:44.147Z,66.00
2023-05-22T18:10:24.036Z,66.60
2023-05-22T18:13:11.130Z,67.40
2023-05-22T18:15:51.055Z,68.40
2023-05-22T18:18:38.157Z,69.10
2023-05-22T18:21:18.003Z,70.00
2023-05-22T18:24:05.179Z,70.70
2023-05-22T18:26:45.020Z,71.10
2023-05-22T18:29:25.321Z,71.40
2023-05-22T18:32:12.126Z,71.60
2023-05-22T18:34:52.372Z,71.60
2023-05-22T18:37:39.077Z,71.50
2023-05-22T18:40:26.169Z,71.50
2023-05-22T18:43:06.101Z,71.40
2023-05-22T18:45:53.236Z,71.40
2023-05-22T18:48:34.104Z,71.50
2023-05-22T18:51:21.309Z,71.60
2023-05-22T18:54:01.073Z,71.70
2023-05-22T18:56:48.286Z,71.50
2023-05-22T18:59:31.086Z,71.60
2023-05-22T19:02:21.317Z,71.60
2023-05-22T19:05:01.220Z,70.90
2023-05-22T19:07:48.233Z,70.70
2023-05-22T19:10:29.114Z,70.80
2023-05-22T19:13:25.981Z,70.70
2023-05-22T19:16:13.244Z,71.50
2023-05-22T19:18:56.179Z,70.20
2023-05-22T19:21:43.181Z,69.00
2023-05-22T19:24:23.141Z,68.90
2023-05-22T19:27:10.355Z,68.10
2023-05-22T19:29:50.177Z,68.50
2023-05-22T19:32:37.384Z,68.30
2023-05-22T19:35:25.239Z,68.00
2023-05-22T19:38:15.118Z,67.90
2023-05-22T19:41:03.207Z,68.10
2023-05-22T19:43:53.234Z,68.60
2023-05-22T19:46:33.175Z,69.50
2023-05-22T19:49:21.232Z,70.40
2023-05-22T19:52:01.149Z,71.00
2023-05-22T19:54:41.626Z,71.70
2023-05-22T19:57:28.241Z,72.10
2023-05-22T20:00:11.171Z,72.50
2023-05-22T20:02:58.261Z,72.90
2023-05-22T20:05:56.237Z,73.90
2023-05-22T20:08:44.315Z,73.30
2023-05-22T20:11:24.154Z,73.70
2023-05-22T20:14:11.893Z,74.10
2023-05-22T20:19:40.318Z,74.20
2023-05-22T20:22:22.980Z,75.30
2023-05-22T20:25:12.692Z,75.40
2023-05-22T20:27:59.660Z,75.40
2023-05-22T20:30:49.155Z,75.60
2023-05-22T20:33:34.208Z,75.40
2023-05-22T20:36:22.614Z,75.40
2023-05-22T20:39:09.243Z,75.30
2023-05-22T20:41:54.475Z,75.40
2023-05-22T20:44:43.412Z,75.20
2023-05-22T20:47:25.858Z,74.90
2023-05-22T20:50:12.261Z,75.00
2023-05-22T20:52:52.976Z,75.20
2023-05-22T20:55:40.540Z,75.30
2023-05-22T20:58:27.289Z,75.20
2023-05-22T21:01:07.601Z,75.20
2023-05-22T21:03:54.222Z,74.40
2023-05-22T21:06:34.483Z,74.80
2023-05-22T21:09:21.332Z,74.80
2023-05-22T21:12:08.599Z,74.70
2023-05-22T21:14:50.241Z,74.60
2023-05-22T21:17:37.452Z,75.00
2023-05-22T21:20:18.231Z,75.00
2023-05-22T21:23:05.510Z,74.80
2023-05-22T21:25:45.243Z,74.90
2023-05-22T21:28:32.429Z,75.20
2023-05-22T21:31:13.294Z,75.40
2023-05-22T21:34:00.409Z,75.50
2023-05-22T21:36:40.302Z,75.60
2023-05-22T21:39:27.403Z,75.80
2023-05-22T21:42:08.295Z,76.00
2023-05-22T21:44:55.241Z,76.20
2023-05-22T21:47:42.395Z,76.40
2023-05-22T21:50:29.530Z,76.40
2023-05-22T21:53:09.277Z,76.80
2023-05-22T21:55:56.449Z,77.10
2023-05-22T21:58:36.270Z,77.20
2023-05-22T22:01:23.456Z,77.30
2023-05-22T22:04:03.475Z,77.50
2023-05-22T22:06:50.349Z,77.90
2023-05-22T22:09:37.408Z,78.10
2023-05-22T22:12:18.410Z,78.60
2023-05-22T22:15:05.460Z,78.80
2023-05-22T22:17:47.376Z,78.80
2023-05-22T22:20:44.050Z,79.20
2023-05-22T22:23:24.313Z,79.60
2023-05-22T22:26:04.609Z,79.50
2023-05-22T22:28:51.361Z,79.50
2023-05-22T22:31:32.800Z,79.60
2023-05-22T22:34:19.361Z,79.80
2023-05-22T22:37:06.990Z,80.00
2023-05-22T22:39:53.325Z,80.30
2023-05-22T22:42:33.573Z,80.40
2023-05-22T22:45:21.441Z,80.90
2023-05-22T22:48:01.615Z,81.10
2023-05-22T22:50:48.358Z,81.40
2023-05-22T22:53:28.574Z,81.70
2023-05-22T22:56:15.625Z,81.50
2023-05-22T22:58:55.565Z,81.80
2023-05-22T23:01:42.498Z,80.60
2023-05-22T23:04:22.736Z,81.10
2023-05-22T23:07:09.382Z,81.20
2023-05-22T23:09:49.492Z,79.80
2023-05-22T23:12:36.445Z,80.00
2023-05-22T23:15:23.373Z,80.00
2023-05-22T23:18:11.074Z,80.30
2023-05-22T23:20:51.422Z,80.20
2023-05-22T23:23:38.467Z,80.40
2023-05-22T23:26:18.510Z,80.40
2023-05-22T23:29:05.609Z,80.40
2023-05-22T23:31:46.541Z,79.20
2023-05-22T23:34:33.585Z,79.00
2023-05-22T23:37:13.465Z,79.70
2023-05-22T23:40:00.629Z,79.70
2023-05-22T23:42:42.416Z,79.30
2023-05-22T23:45:29.527Z,78.70
2023-05-22T23:48:09.609Z,79.00
2023-05-22T23:50:56.492Z,79.00
2023-05-22T23:53:36.409Z,79.10
2023-05-22T23:56:23.639Z,79.10
2023-05-22T23:59:03.411Z,79.00
